Time;durP1;ratioP1;P1;durP2;ratioP2;P2;SDS_P1;SDS_P2;PMS_P1;PMS_P2;Temp;Humidity;BMP_temperature;BMP_pressure;BME280_temperature;BME280_humidity;BME280_pressure;Samples;Min_cycle;Max_cycle;Signal;HPM_P1;HPM_P2
2021/08/21 00:00:07;;;;;;;5.03;3.25;;;;;;;21.55;54.33;100051.13;4501894;31;34215;-87
2021/08/21 00:02:39;;;;;;;4.57;3.40;;;;;;;21.51;54.35;100048.69;4515432;31;35468;-87
2021/08/21 00:05:08;;;;;;;5.03;3.95;;;;;;;21.52;54.23;100053.03;4501286;31;34196;-87
2021/08/21 00:07:36;;;;;;;4.18;3.17;;;;;;;21.52;54.14;100039.81;4487909;31;32868;-87
2021/08/21 00:10:20;;;;;;;5.10;3.62;;;;;;;21.53;54.20;100046.84;4500978;31;34349;-87
2021/08/21 00:12:48;;;;;;;6.28;3.47;;;;;;;21.48;54.35;100047.03;4501036;31;35462;-86
2021/08/21 00:15:19;;;;;;;6.53;3.70;;;;;;;21.44;54.39;100041.91;4500983;31;34235;-87
2021/08/21 00:17:47;;;;;;;4.47;3.20;;;;;;;21.51;54.13;100043.38;4501665;31;33367;-87
2021/08/21 00:20:16;;;;;;;4.32;3.47;;;;;;;21.42;54.51;100038.44;4501074;31;34434;-87
2021/08/21 00:22:43;;;;;;;6.57;3.62;;;;;;;21.37;54.74;100051.03;4487721;31;35481;-86
2021/08/21 00:25:12;;;;;;;4.53;3.20;;;;;;;21.33;54.87;100047.63;4487598;31;33386;-86
2021/08/21 00:27:41;;;;;;;5.05;3.53;;;;;;;21.29;54.94;100048.69;4487620;31;33886;-86
2021/08/21 00:30:10;;;;;;;3.62;3.17;;;;;;;21.24;55.13;100052.41;4487744;31;34800;-86
2021/08/21 00:32:37;;;;;;;5.60;3.50;;;;;;;21.22;55.21;100046.34;4487721;31;34702;-87
2021/08/21 00:35:07;;;;;;;3.92;3.17;;;;;;;21.17;55.17;100043.87;4487658;31;34824;-87
2021/08/21 00:37:35;;;;;;;5.65;3.65;;;;;;;21.17;55.14;100049.16;4488874;31;33815;-87
2021/08/21 00:40:04;;;;;;;3.67;3.17;;;;;;;21.13;55.08;100047.56;4502990;31;34342;-88
2021/08/21 00:42:34;;;;;;;5.43;3.47;;;;;;;21.13;55.16;100052.00;4490239;31;34645;-88
2021/08/21 00:45:06;;;;;;;4.15;2.90;;;;;;;21.16;55.03;100047.44;4502751;31;34297;-87
2021/08/21 00:47:34;;;;;;;6.20;3.55;;;;;;;21.14;55.33;100045.75;4490135;31;33496;-87
2021/08/21 00:50:03;;;;;;;6.32;3.22;;;;;;;21.30;54.91;100054.84;4517316;31;34201;-88
2021/08/21 00:52:34;;;;;;;5.35;3.47;;;;;;;21.26;54.83;100047.94;4489714;31;33919;-88
2021/08/21 00:55:02;;;;;;;5.18;3.72;;;;;;;21.24;54.94;100049.78;4503047;31;34043;-88
2021/08/21 00:57:30;;;;;;;4.43;3.22;;;;;;;21.18;54.97;100050.87;4517507;31;34269;-87
2021/08/21 00:59:57;;;;;;;5.35;3.75;;;;;;;21.16;55.13;100049.19;4477022;31;33459;-87
2021/08/21 01:02:27;;;;;;;5.80;3.37;;;;;;;21.07;55.31;100052.22;4503030;31;35522;-87
2021/08/21 01:04:56;;;;;;;5.55;3.90;;;;;;;21.05;55.41;100051.41;4489740;31;34712;-87
2021/08/21 01:07:30;;;;;;;5.25;3.37;;;;;;;21.13;55.11;100055.50;4489513;31;33966;-87
2021/08/21 01:10:00;;;;;;;4.72;3.28;;;;;;;21.09;55.20;100053.00;4489955;31;34268;-86
2021/08/21 01:12:27;;;;;;;4.07;3.28;;;;;;;21.18;54.64;100052.69;4489838;31;34638;-87
2021/08/21 01:14:55;;;;;;;6.12;3.97;;;;;;;21.19;54.66;100049.09;4502801;31;34003;-86
2021/08/21 01:17:24;;;;;;;5.62;3.42;;;;;;;21.26;54.49;100053.22;4503224;31;34034;-87
2021/08/21 01:19:51;;;;;;;4.68;3.62;;;;;;;21.19;54.74;100052.59;4489995;31;33406;-87
2021/08/21 01:22:22;;;;;;;4.45;3.60;;;;;;;21.20;54.91;100048.19;4502671;31;36013;-87
2021/08/21 01:24:53;;;;;;;4.40;3.50;;;;;;;21.00;55.45;100048.06;4503099;31;34919;-87
2021/08/21 01:27:26;;;;;;;5.47;3.70;;;;;;;20.90;55.59;100044.91;4489873;31;33306;-88
2021/08/21 01:29:55;;;;;;;5.62;3.55;;;;;;;20.87;55.70;100040.59;4489496;31;36614;-87
2021/08/21 01:32:24;;;;;;;6.47;3.47;;;;;;;20.98;55.33;100042.84;4517223;31;35372;-87
2021/08/21 01:34:53;;;;;;;5.45;3.70;;;;;;;21.04;55.19;100037.28;4489617;31;34468;-87
2021/08/21 01:37:24;;;;;;;4.25;3.15;;;;;;;21.02;55.44;100040.91;4503344;31;33398;-88
2021/08/21 01:39:53;;;;;;;4.55;3.70;;;;;;;21.22;54.83;100046.34;4489830;31;34011;-87
2021/08/21 01:42:22;;;;;;;4.80;3.40;;;;;;;21.21;55.03;100041.94;4489506;31;33912;-87
2021/08/21 01:44:50;;;;;;;4.20;3.10;;;;;;;21.01;55.60;100041.84;4502370;31;34380;-87
2021/08/21 01:47:18;;;;;;;6.47;3.65;;;;;;;21.02;55.65;100039.12;4502673;31;34379;-87
2021/08/21 01:49:56;;;;;;;5.55;3.83;;;;;;;21.02;55.72;100043.56;4502903;31;34830;-86
2021/08/21 01:52:26;;;;;;;3.90;3.30;;;;;;;21.12;55.33;100042.31;4489813;31;35554;-87
2021/08/21 01:54:54;;;;;;;4.62;3.55;;;;;;;21.10;55.60;100049.47;4502691;31;33897;-87
2021/08/21 01:57:22;;;;;;;6.72;3.47;;;;;;;21.04;55.91;100047.03;4489449;31;34250;-86
2021/08/21 01:59:51;;;;;;;7.03;3.70;;;;;;;21.12;55.77;100042.31;4517005;31;34050;-87
2021/08/21 02:02:21;;;;;;;5.15;3.55;;;;;;;21.12;55.50;100047.63;4489837;31;34470;-87
2021/08/21 02:04:49;;;;;;;5.95;3.85;;;;;;;21.07;55.71;100052.22;4502655;31;34797;-87
2021/08/21 02:07:17;;;;;;;4.00;3.22;;;;;;;20.80;56.67;100047.03;4502855;31;33578;-87
2021/08/21 02:09:44;;;;;;;6.45;3.78;;;;;;;20.99;56.21;100051.63;4502305;31;34039;-86
2021/08/21 02:12:16;;;;;;;4.93;3.25;;;;;;;20.73;56.82;100048.19;4502685;31;34733;-87
2021/08/21 02:14:44;;;;;;;4.53;3.50;;;;;;;20.86;56.50;100054.75;4503003;31;34213;-87
2021/08/21 02:17:12;;;;;;;4.37;3.53;;;;;;;21.02;55.94;100049.72;4502719;31;33570;-87
2021/08/21 02:19:42;;;;;;;5.68;3.72;;;;;;;21.08;55.75;100048.66;4489900;31;34183;-87
2021/08/21 02:22:10;;;;;;;5.22;3.85;;;;;;;21.03;55.66;100047.94;4502281;31;34110;-86
2021/08/21 02:24:40;;;;;;;7.95;3.65;;;;;;;21.10;55.50;100050.31;4489399;31;34424;-87
2021/08/21 02:27:10;;;;;;;8.20;3.72;;;;;;;21.21;55.30;100044.59;4502631;31;35539;-87
2021/08/21 02:29:40;;;;;;;4.97;3.30;;;;;;;21.14;55.38;100053.69;4502629;31;34153;-87
2021/08/21 02:32:07;;;;;;;4.53;3.50;;;;;;;21.27;55.01;100053.19;4516451;31;34503;-86
2021/08/21 02:34:35;;;;;;;4.75;3.65;;;;;;;21.27;54.93;100052.31;4502233;31;34140;-87
2021/08/21 02:37:03;;;;;;;5.68;3.42;;;;;;;21.34;54.83;100049.38;4502217;31;33407;-86
2021/08/21 02:39:31;;;;;;;6.50;3.40;;;;;;;21.45;54.83;100046.28;4489058;31;33711;-86
2021/08/21 02:41:58;;;;;;;6.07;3.25;;;;;;;21.35;55.30;100040.47;4502360;31;34620;-86
2021/08/21 02:44:26;;;;;;;4.62;3.65;;;;;;;21.44;55.17;100041.91;4489279;31;35050;-86
2021/08/21 02:46:53;;;;;;;7.53;3.62;;;;;;;21.33;55.37;100049.41;4489085;31;33344;-86
2021/08/21 02:49:21;;;;;;;4.40;3.30;;;;;;;21.36;55.49;100044.00;4502143;31;34036;-86
2021/08/21 02:51:49;;;;;;;5.50;3.35;;;;;;;21.26;55.87;100040.84;4502097;31;35579;-86
2021/08/21 02:54:16;;;;;;;5.20;3.35;;;;;;;21.23;56.16;100042.75;4516332;31;34897;-86
2021/08/21 02:56:44;;;;;;;4.30;3.10;;;;;;;21.20;56.47;100049.06;4489447;31;34257;-87
2021/08/21 02:59:12;;;;;;;4.55;3.55;;;;;;;21.12;56.75;100047.63;4501666;31;34768;-87
2021/08/21 03:01:40;;;;;;;4.55;3.35;;;;;;;20.99;57.09;100046.34;4516699;31;34485;-87
2021/08/21 03:04:08;;;;;;;4.70;3.58;;;;;;;21.20;56.58;100049.06;4489132;31;33790;-87
2021/08/21 03:06:36;;;;;;;5.05;3.25;;;;;;;20.93;57.09;100045.66;4489221;31;32885;-87
2021/08/21 03:09:04;;;;;;;6.12;3.80;;;;;;;20.86;57.16;100049.47;4476268;31;33565;-87
2021/08/21 03:11:32;;;;;;;8.07;3.85;;;;;;;20.68;57.79;100050.13;4502097;31;34810;-87
2021/08/21 03:14:01;;;;;;;9.05;3.75;;;;;;;20.63;57.83;100057.41;4502348;31;32892;-88
2021/08/21 03:16:29;;;;;;;5.50;4.00;;;;;;;20.84;57.34;100051.31;4516052;31;33434;-87
2021/08/21 03:18:56;;;;;;;6.22;4.12;;;;;;;20.86;57.17;100049.47;4501833;31;34740;-87
2021/08/21 03:21:24;;;;;;;5.70;3.70;;;;;;;20.90;57.01;100052.81;4475976;31;34545;-87
2021/08/21 03:23:52;;;;;;;5.28;3.62;;;;;;;21.03;56.93;100056.75;4502127;31;34833;-87
2021/08/21 03:26:21;;;;;;;5.90;3.95;;;;;;;21.09;56.83;100053.00;4516023;31;34232;-87
2021/08/21 03:28:49;;;;;;;5.75;3.50;;;;;;;20.93;57.18;100050.94;4501899;31;33988;-87
2021/08/21 03:31:17;;;;;;;6.07;3.70;;;;;;;20.98;57.03;100055.19;4501765;31;34667;-87
2021/08/21 03:33:45;;;;;;;6.65;3.85;;;;;;;20.79;57.37;100053.25;4501964;31;34124;-87
2021/08/21 03:36:13;;;;;;;6.47;3.40;;;;;;;20.71;57.57;100057.09;4475913;31;32765;-88
2021/08/21 03:38:41;;;;;;;6.20;3.85;;;;;;;20.89;57.18;100057.25;4488717;31;33381;-88
2021/08/21 03:41:09;;;;;;;7.03;3.72;;;;;;;20.82;57.34;100061.03;4488896;31;35530;-87
2021/08/21 03:43:37;;;;;;;6.50;3.72;;;;;;;20.77;57.40;100055.09;4501763;31;34427;-87
2021/08/21 03:46:05;;;;;;;5.20;3.60;;;;;;;20.90;56.79;100058.97;4488485;31;32430;-88
2021/08/21 03:48:33;;;;;;;5.62;3.50;;;;;;;20.92;56.68;100059.78;4501388;31;33844;-86
2021/08/21 03:51:00;;;;;;;4.90;3.97;;;;;;;20.77;56.99;100064.81;4501479;31;35560;-87
2021/08/21 03:53:29;;;;;;;6.55;4.53;;;;;;;20.83;56.92;100065.44;4475731;31;34511;-87
2021/08/21 03:55:58;;;;;;;8.55;3.72;;;;;;;20.90;56.83;100072.19;4501158;31;33239;-87
2021/08/21 03:58:27;;;;;;;5.32;3.55;;;;;;;20.77;57.25;100072.72;4501499;31;33845;-87
2021/08/21 04:00:54;;;;;;;5.50;3.70;;;;;;;20.89;56.93;100075.75;4488522;31;34591;-87
2021/08/21 04:03:23;;;;;;;4.53;3.87;;;;;;;20.84;57.05;100080.38;4501571;31;34914;-87
2021/08/21 04:05:50;;;;;;;6.20;3.53;;;;;;;20.68;57.45;100075.72;4501566;31;34271;-87
2021/08/21 04:08:18;;;;;;;6.87;3.75;;;;;;;20.62;57.59;100075.94;4515231;31;34755;-87
2021/08/21 04:10:46;;;;;;;5.47;3.92;;;;;;;20.72;57.40;100070.25;4501400;31;34774;-87
2021/08/21 04:13:13;;;;;;;5.40;3.78;;;;;;;20.81;57.16;100076.97;4517486;31;34042;-87
2021/08/21 04:15:41;;;;;;;6.37;3.95;;;;;;;20.77;57.16;100086.81;4517507;31;34249;-87
2021/08/21 04:18:09;;;;;;;7.03;3.87;;;;;;;20.78;57.15;100085.88;4503211;31;34696;-87
2021/08/21 04:20:37;;;;;;;6.47;3.80;;;;;;;20.82;57.01;100090.12;4490109;31;34441;-88
2021/08/21 04:23:04;;;;;;;5.90;4.22;;;;;;;20.82;57.11;100086.66;4477305;31;34844;-87
2021/08/21 04:25:33;;;;;;;6.62;3.95;;;;;;;20.83;57.16;100085.72;4490802;31;33452;-87
2021/08/21 04:28:01;;;;;;;6.22;4.12;;;;;;;20.93;56.96;100090.59;4490254;31;33192;-87
2021/08/21 04:30:29;;;;;;;5.40;4.05;;;;;;;21.00;57.00;100085.94;4476875;31;35097;-87
2021/08/21 04:32:57;;;;;;;5.25;3.97;;;;;;;20.94;57.22;100092.31;4503476;31;34173;-87
2021/08/21 04:35:25;;;;;;;6.60;3.90;;;;;;;20.78;57.60;100093.81;4489750;31;33835;-87
2021/08/21 04:37:52;;;;;;;9.13;4.82;;;;;;;20.89;57.23;100096.91;4517643;31;34005;-87
2021/08/21 04:40:22;;;;;;;6.97;4.18;;;;;;;20.93;57.04;100089.75;4503348;31;34598;-87
2021/08/21 04:42:50;;;;;;;6.53;4.10;;;;;;;20.96;56.99;100091.41;4490264;31;33792;-88
2021/08/21 04:45:17;;;;;;;6.78;4.50;;;;;;;20.89;57.02;100096.06;4490209;31;33100;-87
2021/08/21 04:47:45;;;;;;;6.25;4.20;;;;;;;20.93;56.86;100093.25;4503303;31;33762;-87
2021/08/21 04:50:13;;;;;;;7.05;4.05;;;;;;;21.00;56.82;100104.44;4503091;31;35468;-87
2021/08/21 04:52:40;;;;;;;7.10;4.37;;;;;;;21.13;57.02;100096.94;4503259;31;34035;-87
2021/08/21 04:55:09;;;;;;;6.05;4.25;;;;;;;21.15;57.06;100103.03;4503269;31;33220;-88
2021/08/21 04:57:36;;;;;;;5.00;4.05;;;;;;;21.16;57.09;100100.31;4502747;31;34641;-87
2021/08/21 05:00:05;;;;;;;6.20;4.40;;;;;;;21.16;57.08;100096.81;4490261;31;34594;-87
2021/08/21 05:02:34;;;;;;;5.03;3.90;;;;;;;21.25;56.92;100099.13;4517568;31;34837;-87
2021/08/21 05:05:03;;;;;;;5.90;4.12;;;;;;;21.25;56.82;100099.13;4502910;31;33819;-88
2021/08/21 05:07:31;;;;;;;9.88;4.75;;;;;;;21.28;56.86;100099.84;4502844;31;34293;-87
2021/08/21 05:09:59;;;;;;;5.30;4.28;;;;;;;21.48;56.56;100101.72;4490003;31;34711;-87
2021/08/21 05:12:26;;;;;;;5.90;4.47;;;;;;;21.46;56.93;100106.22;4502885;31;34074;-88
2021/08/21 05:14:55;;;;;;;7.95;4.57;;;;;;;21.54;56.58;100106.75;4503129;31;33547;-86
2021/08/21 05:17:23;;;;;;;6.45;4.18;;;;;;;21.70;56.24;100107.88;4517265;31;34351;-87
2021/08/21 05:19:52;;;;;;;7.25;4.00;;;;;;;21.76;56.28;100110.28;4503034;31;34471;-86
2021/08/21 05:22:24;;;;;;;7.15;3.70;;;;;;;21.86;56.09;100106.38;4489553;31;33747;-87
2021/08/21 05:24:52;;;;;;;7.35;3.70;;;;;;;21.91;55.91;100111.47;4490275;31;34239;-87
2021/08/21 05:27:23;;;;;;;5.72;3.90;;;;;;;21.97;55.32;100104.13;4489444;31;34324;-87
2021/08/21 05:29:50;;;;;;;6.32;3.67;;;;;;;22.05;55.46;100120.56;4502629;31;34531;-88
2021/08/21 05:32:18;;;;;;;4.45;3.62;;;;;;;22.20;55.19;100124.38;4502804;31;34158;-87
2021/08/21 05:34:45;;;;;;;6.47;3.65;;;;;;;22.30;54.51;100108.94;4476823;31;33266;-88
2021/08/21 05:37:13;;;;;;;5.07;4.03;;;;;;;22.35;55.18;100109.56;4502656;31;34144;-87
2021/08/21 05:39:41;;;;;;;5.78;4.12;;;;;;;22.51;54.82;100108.00;4502660;31;34802;-86
2021/08/21 05:42:09;;;;;;;5.87;3.87;;;;;;;22.63;54.92;100113.62;4502700;31;33758;-87
2021/08/21 05:44:37;;;;;;;6.45;3.90;;;;;;;22.75;54.33;100118.37;4489423;31;33540;-85
2021/08/21 05:47:04;;;;;;;5.47;3.45;;;;;;;22.98;53.75;100114.72;4489298;31;33618;-87
2021/08/21 05:49:32;;;;;;;7.57;3.78;;;;;;;22.86;53.46;100125.88;4489739;31;34785;-86
2021/08/21 05:51:59;;;;;;;5.20;4.18;;;;;;;23.03;53.66;100123.31;4502465;31;34840;-88
2021/08/21 05:54:27;;;;;;;6.90;3.28;;;;;;;23.14;53.28;100120.16;4502658;31;33467;-87
2021/08/21 05:56:57;;;;;;;9.10;4.37;;;;;;;23.30;53.11;100130.00;4517076;31;34795;-87
2021/08/21 05:59:24;;;;;;;4.82;3.50;;;;;;;23.45;52.20;100139.94;4502362;31;34600;-87
2021/08/21 06:01:52;;;;;;;8.80;4.07;;;;;;;23.68;51.37;100135.31;4489514;31;34143;-87
2021/08/21 06:04:20;;;;;;;5.78;3.55;;;;;;;23.85;51.67;100125.59;4489410;31;33851;-87
2021/08/21 06:06:48;;;;;;;6.05;2.97;;;;;;;23.99;50.43;100132.84;4489597;31;34073;-87
2021/08/21 06:09:19;;;;;;;8.07;3.45;;;;;;;23.92;51.37;100136.75;4489582;31;34673;-87
2021/08/21 06:11:47;;;;;;;;;;;;;;;24.21;50.21;100133.53;4503550;31;34146;-86
2021/08/21 06:14:15;;;;;;;4.53;3.62;;;;;;;24.34;49.07;100134.66;4502266;31;32746;-87
2021/08/21 06:16:42;;;;;;;3.83;3.10;;;;;;;24.41;50.15;100136.06;4502235;31;34728;-87
2021/08/21 06:19:10;;;;;;;3.80;2.90;;;;;;;24.48;51.00;100131.28;4502433;31;34978;-86
2021/08/21 06:21:37;;;;;;;3.70;3.03;;;;;;;24.65;49.84;100129.44;4489226;31;33700;-86
2021/08/21 06:24:05;;;;;;;7.60;3.42;;;;;;;24.72;50.41;100130.84;4489032;31;32946;-87
2021/08/21 06:26:33;;;;;;;5.43;3.03;;;;;;;24.99;48.96;100127.69;4502634;31;34726;-86
2021/08/21 06:29:00;;;;;;;7.70;3.17;;;;;;;25.16;48.47;100125.84;4502231;31;34930;-86
2021/08/21 06:31:28;;;;;;;6.60;3.20;;;;;;;25.30;49.04;100127.72;4486493;31;34848;-87
2021/08/21 06:33:56;;;;;;;9.05;3.17;;;;;;;25.46;47.51;100133.94;4500337;31;33552;-87
2021/08/21 06:36:23;;;;;;;3.67;3.15;;;;;;;25.67;46.43;100134.56;4486309;31;33970;-87
2021/08/21 06:38:51;;;;;;;4.07;2.80;;;;;;;25.82;46.73;100137.22;4486336;31;34750;-86
2021/08/21 06:41:18;;;;;;;3.95;2.90;;;;;;;25.92;46.35;100132.22;4486415;31;34135;-87
2021/08/21 06:43:47;;;;;;;7.07;2.60;;;;;;;25.85;46.33;100142.37;4473815;31;33463;-86
2021/08/21 06:46:17;;;;;;;3.53;2.85;;;;;;;26.05;45.88;100133.22;4486501;31;34844;-85
2021/08/21 06:48:45;;;;;;;7.62;3.10;;;;;;;26.22;46.07;100142.94;4486444;31;34675;-86
2021/08/21 06:51:13;;;;;;;5.00;2.97;;;;;;;26.36;46.80;100137.66;4473447;31;34839;-86
2021/08/21 06:53:40;;;;;;;5.78;3.00;;;;;;;26.58;46.43;100132.72;4473317;31;33444;-86
2021/08/21 06:56:08;;;;;;;4.20;2.78;;;;;;;26.70;45.17;100137.31;4500570;31;34791;-86
2021/08/21 06:58:35;;;;;;;5.68;3.05;;;;;;;26.69;45.14;100140.97;4500428;31;35405;-87
2021/08/21 07:01:03;;;;;;;4.15;2.80;;;;;;;26.93;44.12;100144.81;4500407;31;34360;-87
2021/08/21 07:03:31;;;;;;;5.78;3.00;;;;;;;26.81;44.91;100138.41;4500461;31;33576;-87
2021/08/21 07:05:58;;;;;;;3.65;3.00;;;;;;;26.95;44.74;100142.91;4486381;31;34589;-87
2021/08/21 07:08:26;;;;;;;5.60;3.00;;;;;;;27.25;44.58;100138.31;4473457;31;35426;-86
2021/08/21 07:10:54;;;;;;;3.65;2.60;;;;;;;27.37;44.13;100148.25;4499379;31;34064;-85
2021/08/21 07:13:21;;;;;;;9.43;2.97;;;;;;;27.46;43.62;100145.00;4500683;31;33299;-86
2021/08/21 07:15:51;;;;;;;4.22;2.80;;;;;;;27.81;41.19;100142.72;4486106;31;34309;-87
2021/08/21 07:18:19;;;;;;;5.90;2.78;;;;;;;27.72;43.01;100154.00;4472934;31;34029;-86
2021/08/21 07:20:46;;;;;;;3.92;2.55;;;;;;;27.93;40.90;100141.06;4485924;31;33917;-86
2021/08/21 07:23:14;;;;;;;5.00;2.45;;;;;;;28.01;41.06;100147.62;4473239;31;34001;-87
2021/08/21 07:25:44;;;;;;;2.92;2.25;;;;;;;28.01;42.16;100146.78;4486022;31;34073;-87
2021/08/21 07:28:12;;;;;;;4.00;2.22;;;;;;;28.02;40.73;100148.50;4486019;31;35410;-87
2021/08/21 07:30:39;;;;;;;4.87;2.60;;;;;;;28.26;40.83;100146.88;4496158;31;34435;-86
2021/08/21 07:33:07;;;;;;;3.97;2.92;;;;;;;28.33;41.33;100150.84;4502708;31;33343;-87
2021/08/21 07:35:34;;;;;;;2.90;2.60;;;;;;;28.39;40.08;100147.75;4517945;31;33992;-87
2021/08/21 07:38:02;;;;;;;4.55;2.40;;;;;;;28.47;39.40;100152.56;4504464;31;34728;-87
2021/08/21 07:40:29;;;;;;;3.67;2.00;;;;;;;28.50;39.50;100155.06;4508797;31;34224;-88
2021/08/21 07:42:57;;;;;;;2.40;1.90;;;;;;;28.68;36.55;100143.97;4516826;31;34058;-88
2021/08/21 07:45:24;;;;;;;3.67;2.25;;;;;;;28.60;37.82;100151.66;4513539;31;35339;-87
2021/08/21 07:47:52;;;;;;;3.95;2.20;;;;;;;28.70;37.85;100158.09;4490252;31;34356;-88
2021/08/21 07:50:21;;;;;;;2.40;1.73;;;;;;;28.64;37.42;100158.53;4490798;31;34986;-88
2021/08/21 07:52:48;;;;;;;2.30;1.98;;;;;;;28.65;36.72;100154.88;4490517;31;34241;-87
2021/08/21 07:55:16;;;;;;;5.32;1.90;;;;;;;28.87;35.68;100162.28;4490177;31;33668;-87
2021/08/21 07:57:43;;;;;;;2.33;2.00;;;;;;;29.07;33.94;100163.56;4490220;31;35478;-87
2021/08/21 08:00:11;;;;;;;2.35;1.55;;;;;;;28.82;36.86;100162.59;4503635;31;34211;-88
2021/08/21 08:02:44;;;;;;;1.67;1.30;;;;;;;28.99;35.35;100166.78;4491337;31;33404;-87
2021/08/21 08:05:11;;;;;;;2.55;1.80;;;;;;;29.17;35.36;100165.47;4490801;31;34122;-87
2021/08/21 08:07:39;;;;;;;3.25;1.80;;;;;;;29.06;35.71;100156.47;4492466;31;34656;-87
2021/08/21 08:10:08;;;;;;;2.85;1.83;;;;;;;29.01;35.93;100158.63;4514689;31;35459;-87
2021/08/21 08:12:35;;;;;;;3.65;1.90;;;;;;;29.10;35.41;100164.19;4525720;31;34141;-87
2021/08/21 08:15:03;;;;;;;2.05;1.75;;;;;;;29.19;35.68;100160.88;4519079;31;35397;-87
2021/08/21 08:17:31;;;;;;;1.95;1.50;;;;;;;29.37;35.02;100166.78;4490054;31;34668;-87
2021/08/21 08:19:59;;;;;;;2.30;1.52;;;;;;;29.12;35.75;100170.28;4503206;31;34903;-87
2021/08/21 08:22:27;;;;;;;3.20;1.80;;;;;;;29.21;34.23;100167.03;4503505;31;34227;-87
2021/08/21 08:24:54;;;;;;;4.12;1.80;;;;;;;29.20;34.59;100162.63;4503123;31;33676;-87
2021/08/21 08:27:22;;;;;;;2.53;1.65;;;;;;;29.16;34.97;100176.31;4517492;31;34580;-87
2021/08/21 08:29:49;;;;;;;2.95;2.00;;;;;;;29.11;35.00;100178.44;4502933;31;34824;-87
2021/08/21 08:32:17;;;;;;;3.95;1.85;;;;;;;29.15;34.11;100183.47;4489969;31;32895;-87
2021/08/21 08:34:44;;;;;;;3.37;1.87;;;;;;;29.28;34.08;100176.34;4503136;31;34667;-87
2021/08/21 08:37:12;;;;;;;2.33;1.65;;;;;;;29.23;32.79;100166.91;4502898;31;34635;-87
2021/08/21 08:39:41;;;;;;;2.87;1.50;;;;;;;29.27;33.29;100168.38;4517358;31;34138;-86
2021/08/21 08:42:09;;;;;;;2.50;1.60;;;;;;;29.50;33.08;100179.16;4490204;31;33757;-87
2021/08/21 08:44:45;;;;;;;3.70;1.58;;;;;;;29.46;33.63;100180.38;4503125;31;34221;-87
2021/08/21 08:47:14;;;;;;;3.17;1.50;;;;;;;29.45;33.94;100172.44;4490280;31;34128;-87
2021/08/21 08:49:47;;;;;;;3.47;1.77;;;;;;;29.18;33.64;100180.63;4503142;31;34141;-88
2021/08/21 08:52:16;;;;;;;3.55;1.50;;;;;;;29.30;33.55;100170.84;4490172;31;33657;-87
2021/08/21 08:54:44;;;;;;;3.10;1.60;;;;;;;29.40;33.15;100175.47;4503023;31;34844;-87
2021/08/21 08:57:52;;;;;;;4.90;1.92;;;;;;;29.44;33.03;100168.91;4502529;31;34656;-87
2021/08/21 09:00:24;;;;;;;1.67;1.48;;;;;;;29.61;33.30;100165.00;4490265;31;34228;-87
2021/08/21 09:02:53;;;;;;;2.33;1.62;;;;;;;29.70;32.35;100166.16;4489707;31;32781;-87
2021/08/21 09:05:24;;;;;;;3.97;1.75;;;;;;;29.62;32.92;100164.00;4503072;31;33977;-86
2021/08/21 09:07:56;;;;;;;2.30;1.87;;;;;;;29.56;33.29;100166.28;4489462;31;34587;-87
2021/08/21 09:10:29;;;;;;;2.28;1.70;;;;;;;29.79;31.72;100166.34;4517170;31;34215;-87
2021/08/21 09:13:10;;;;;;;2.03;1.58;;;;;;;29.81;31.81;100167.09;4502804;31;33520;-87
2021/08/21 09:15:46;;;;;;;2.10;1.55;;;;;;;29.95;32.12;100172.28;4489755;31;34501;-87
2021/08/21 09:18:20;;;;;;;1.85;1.42;;;;;;;30.20;32.09;100167.78;4502651;31;34629;-87
2021/08/21 09:21:07;;;;;;;3.22;1.35;;;;;;;30.09;32.17;100169.47;4505061;31;34860;-87
2021/08/21 09:23:38;;;;;;;1.80;1.60;;;;;;;29.94;32.01;100161.69;4489889;31;33262;-87
2021/08/21 09:26:07;;;;;;;1.92;1.40;;;;;;;29.80;32.61;100170.75;4489749;31;33907;-87
2021/08/21 09:28:43;;;;;;;2.33;1.60;;;;;;;30.09;31.47;100169.47;4502641;31;34467;-87
2021/08/21 09:31:11;;;;;;;1.58;1.10;;;;;;;30.02;32.32;100170.03;4502558;31;34230;-87
2021/08/21 09:33:53;;;;;;;1.67;1.33;;;;;;;30.10;31.62;100171.16;4502724;31;33191;-87
2021/08/21 09:36:37;;;;;;;2.20;1.55;;;;;;;30.06;30.79;100164.31;4489805;31;34353;-87
2021/08/21 09:39:10;;;;;;;6.00;1.73;;;;;;;29.93;30.50;100168.88;4489441;31;34643;-87
2021/08/21 09:41:57;;;;;;;1.65;1.52;;;;;;;29.93;33.18;100168.88;4489667;31;33448;-87
2021/08/21 09:44:35;;;;;;;2.03;1.48;;;;;;;29.76;31.52;100171.97;4502709;31;33591;-87
2021/08/21 09:47:27;;;;;;;1.95;1.55;;;;;;;30.16;30.36;100167.19;4516956;31;33938;-86
2021/08/21 09:50:21;;;;;;;;;;;;;;;29.86;30.42;100167.62;4503743;31;34498;-87
2021/08/21 09:52:49;;;;;;;2.60;1.30;;;;;;;30.09;31.17;100158.75;4499909;31;35095;-87
2021/08/21 09:55:20;;;;;;;3.67;1.50;;;;;;;30.02;30.85;100165.50;4516919;31;33407;-87
2021/08/21 09:58:05;;;;;;;2.92;1.37;;;;;;;30.04;30.74;100160.91;4502572;31;33826;-87
2021/08/21 10:00:35;;;;;;;2.83;1.42;;;;;;;30.28;31.54;100158.22;4502356;31;34566;-86
2021/08/21 10:03:04;;;;;;;2.37;1.37;;;;;;;30.11;30.67;100161.28;4502533;31;34492;-87
2021/08/21 10:05:32;;;;;;;2.50;1.62;;;;;;;30.45;30.16;100152.41;4502554;31;33246;-87
2021/08/21 10:08:05;;;;;;;1.98;1.30;;;;;;;30.20;30.63;100154.38;4489518;31;34315;-87
2021/08/21 10:10:49;;;;;;;2.75;1.15;;;;;;;30.18;30.84;100167.91;4489031;31;34707;-87
2021/08/21 10:13:28;;;;;;;2.05;1.50;;;;;;;30.28;29.90;100157.34;4477908;31;33451;-87
2021/08/21 10:15:56;;;;;;;1.42;1.20;;;;;;;30.46;30.55;100161.34;4490453;31;33081;-87
2021/08/21 10:18:24;;;;;;;1.60;1.27;;;;;;;30.63;29.73;100152.84;4489168;31;34565;-87
2021/08/21 10:20:52;;;;;;;1.60;1.30;;;;;;;30.42;29.19;100154.50;4489129;31;34060;-87
2021/08/21 10:23:26;;;;;;;1.30;1.17;;;;;;;30.40;29.93;100157.31;4489122;31;34436;-87
2021/08/21 10:26:16;;;;;;;1.58;1.30;;;;;;;30.60;29.64;100156.63;4490130;31;34241;-87
2021/08/21 10:28:44;;;;;;;1.73;1.35;;;;;;;30.60;29.43;100158.44;4489214;31;34767;-88
2021/08/21 10:31:39;;;;;;;4.28;1.40;;;;;;;30.83;28.75;100152.16;4489078;31;34664;-87
2021/08/21 10:34:08;;;;;;;2.75;1.58;;;;;;;30.84;28.84;100153.84;4516632;31;34092;-87
2021/08/21 10:36:43;;;;;;;2.20;1.58;;;;;;;30.91;27.86;100149.75;4502412;31;33476;-86
2021/08/21 10:39:25;;;;;;;2.55;1.80;;;;;;;30.95;27.98;100153.94;4516550;31;33938;-87
2021/08/21 10:41:54;;;;;;;;;;;;;;;30.83;28.37;100144.12;4516720;31;35592;-87
2021/08/21 10:44:41;;;;;;;1.58;1.40;;;;;;;30.87;27.81;100150.09;4502208;31;34757;-87
2021/08/21 10:47:32;;;;;;;1.98;1.45;;;;;;;30.94;27.90;100151.34;4516545;31;33533;-87
2021/08/21 10:50:12;;;;;;;2.53;1.70;;;;;;;30.79;29.30;100150.69;4478063;31;33345;-86
2021/08/21 10:52:53;;;;;;;2.22;1.40;;;;;;;30.60;28.73;100143.19;4516395;31;34670;-87
2021/08/21 10:55:24;;;;;;;2.33;1.40;;;;;;;30.71;27.99;100147.75;4502290;31;34870;-88
2021/08/21 10:58:01;;;;;;;2.47;1.50;;;;;;;30.84;28.45;100140.44;4476342;31;33131;-87
2021/08/21 11:00:38;;;;;;;2.65;1.70;;;;;;;30.85;27.56;100141.28;4502474;31;34397;-86
2021/08/21 11:03:17;;;;;;;2.53;1.58;;;;;;;30.76;27.32;100145.56;4488609;31;35078;-87
2021/08/21 11:05:56;;;;;;;1.92;1.55;;;;;;;30.91;27.99;100144.38;4516559;31;33859;-86
2021/08/21 11:08:27;;;;;;;3.37;1.60;;;;;;;30.93;27.62;100150.47;4502078;31;33441;-88
2021/08/21 11:11:07;;;;;;;1.90;1.58;;;;;;;30.97;28.58;100143.91;4502134;31;34118;-87
2021/08/21 11:14:06;;;;;;;2.33;1.70;;;;;;;30.62;29.08;100140.38;4501745;31;33984;-88
2021/08/21 11:16:48;;;;;;;2.47;1.50;;;;;;;31.01;27.88;100153.44;4503389;31;34033;-88
2021/08/21 11:19:46;;;;;;;3.58;1.60;;;;;;;30.87;26.99;100142.88;4502533;31;33396;-88
2021/08/21 11:22:26;;;;;;;1.50;1.25;;;;;;;31.07;26.96;100149.41;4482646;31;33297;-88
2021/08/21 11:25:00;;;;;;;3.20;1.50;;;;;;;30.84;27.46;100140.44;4501951;31;34801;-88
2021/08/21 11:27:34;;;;;;;2.95;1.83;;;;;;;30.92;27.50;100142.56;4488886;31;34865;-88
2021/08/21 11:30:12;;;;;;;2.22;1.50;;;;;;;31.06;27.23;100145.00;4486797;31;93141;-88
2021/08/21 11:32:51;;;;;;;2.65;1.48;;;;;;;31.19;26.80;100135.84;4501560;31;33737;-88
2021/08/21 11:35:22;;;;;;;2.08;1.58;;;;;;;31.16;26.82;100136.09;4475502;31;33950;-87
2021/08/21 11:38:01;;;;;;;2.00;1.80;;;;;;;31.12;26.98;100144.53;4501668;31;34088;-87
2021/08/21 11:40:39;;;;;;;1.58;1.45;;;;;;;31.14;28.00;100132.66;4515852;31;33440;-87